createdAt,value
2022-08-30T00:01:31.953Z,95717.97
2022-08-30T00:04:18.031Z,95723.22
2022-08-30T00:07:03.898Z,95729.72
2022-08-30T00:09:50.718Z,95728.34
2022-08-30T00:12:37.056Z,95737.16
2022-08-30T00:15:24.081Z,95741.28
2022-08-30T00:18:10.249Z,95733.13
2022-08-30T00:20:56.736Z,95723.78
2022-08-30T00:23:42.801Z,95738.09
2022-08-30T00:26:29.005Z,95740.59
2022-08-30T00:29:14.922Z,95732.66
2022-08-30T00:32:02.497Z,95737.88
2022-08-30T00:34:49.972Z,95742.16
2022-08-30T00:37:36.184Z,95746.53
2022-08-30T00:40:27.129Z,95735.31
2022-08-30T00:43:27.757Z,95740.75
2022-08-30T00:46:14.356Z,95742.44
2022-08-30T00:49:03.625Z,95737.91
2022-08-30T00:51:49.421Z,95739.59
2022-08-30T00:54:36.774Z,95718.28
2022-08-30T00:57:22.921Z,95722.91
2022-08-30T01:00:09.745Z,95726.69
2022-08-30T01:02:56.272Z,95731.16
2022-08-30T01:05:42.657Z,95728.09
2022-08-30T01:08:28.969Z,95728.41
2022-08-30T01:11:18.172Z,95725.38
2022-08-30T01:14:05.261Z,95723.78
2022-08-30T01:16:51.201Z,95716.94
2022-08-30T01:19:54.394Z,95707.81
2022-08-30T01:22:49.571Z,95707.34
2022-08-30T01:25:36.268Z,95707.63
2022-08-30T01:28:26.172Z,95692.50
2022-08-30T01:31:12.423Z,95707.88
2022-08-30T01:33:58.616Z,95695.31
2022-08-30T01:36:45.867Z,95711.03
2022-08-30T01:39:32.040Z,95711.03
2022-08-30T01:42:18.240Z,95707.97
2022-08-30T01:45:05.488Z,95709.00
2022-08-30T01:47:51.170Z,95703.75
2022-08-30T01:50:37.947Z,95702.75
2022-08-30T01:53:26.507Z,95706.22
2022-08-30T01:56:13.313Z,95685.72
2022-08-30T01:59:02.876Z,95687.38
2022-08-30T02:01:49.190Z,95711.16
2022-08-30T02:04:36.827Z,95702.75
2022-08-30T02:07:24.029Z,95693.94
2022-08-30T02:10:10.195Z,95698.63
2022-08-30T02:12:56.491Z,95709.34
2022-08-30T02:15:42.220Z,95703.41
2022-08-30T02:18:28.252Z,95702.13
2022-08-30T02:21:14.275Z,95699.16
2022-08-30T02:24:00.398Z,95708.97
2022-08-30T02:26:46.590Z,95707.34
2022-08-30T02:29:32.759Z,95709.25
2022-08-30T02:32:19.178Z,95703.97
2022-08-30T02:35:05.741Z,95712.72
2022-08-30T02:37:51.582Z,95703.41
2022-08-30T02:40:39.184Z,95700.91
2022-08-30T02:43:25.435Z,95705.78
2022-08-30T02:46:11.547Z,95706.63
2022-08-30T02:48:58.666Z,95711.66
2022-08-30T02:51:46.524Z,95702.69
2022-08-30T02:54:33.437Z,95699.13
2022-08-30T02:57:20.458Z,95703.06
2022-08-30T03:00:13.177Z,95724.88
2022-08-30T03:02:59.132Z,95726.84
2022-08-30T03:05:45.253Z,95723.16
2022-08-30T03:08:31.895Z,95672.63
2022-08-30T03:11:18.401Z,95719.13
2022-08-30T03:14:04.710Z,95714.81
2022-08-30T03:16:51.572Z,95731.72
2022-08-30T03:19:38.171Z,95732.47
2022-08-30T03:22:24.061Z,95732.47
2022-08-30T03:25:10.290Z,95717.88
2022-08-30T03:27:56.725Z,95730.81
2022-08-30T03:30:42.754Z,95736.34
2022-08-30T03:33:28.674Z,95729.66
2022-08-30T03:36:14.936Z,95736.56
2022-08-30T03:39:00.668Z,95741.78
2022-08-30T03:41:46.676Z,95752.06
2022-08-30T03:44:32.662Z,95747.03
2022-08-30T03:47:18.624Z,95743.16
2022-08-30T03:50:06.065Z,95760.97
2022-08-30T03:52:52.260Z,95749.09
2022-08-30T03:55:38.196Z,95766.31
2022-08-30T03:58:24.478Z,95760.66
2022-08-30T04:01:10.636Z,95753.06
2022-08-30T04:03:56.713Z,95745.97
2022-08-30T04:06:44.009Z,95750.44
2022-08-30T04:09:29.845Z,95762.13
2022-08-30T04:12:20.481Z,95770.38
2022-08-30T04:15:11.276Z,95762.94
2022-08-30T04:17:57.416Z,95751.97
2022-08-30T04:20:43.730Z,95766.75
2022-08-30T04:23:29.893Z,95753.22
2022-08-30T04:26:15.876Z,95779.84
2022-08-30T04:29:01.718Z,95779.25
2022-08-30T04:31:47.630Z,95773.34
2022-08-30T04:34:33.508Z,95780.25
2022-08-30T04:37:19.233Z,95782.91
2022-08-30T04:40:06.995Z,95781.25
2022-08-30T04:42:54.542Z,95748.84
2022-08-30T04:45:41.467Z,95779.25
2022-08-30T04:48:27.761Z,95778.34
2022-08-30T04:51:17.521Z,95789.22
2022-08-30T04:54:03.400Z,95770.75
2022-08-30T04:56:49.647Z,95794.81
2022-08-30T04:59:35.928Z,95811.63
2022-08-30T05:02:22.004Z,95798.03
2022-08-30T05:05:28.714Z,95791.03
2022-08-30T05:08:24.338Z,95803.88
2022-08-30T05:11:10.804Z,95788.72
2022-08-30T05:13:56.956Z,95801.34
2022-08-30T05:16:43.145Z,95800.28
2022-08-30T05:19:33.596Z,95786.00
2022-08-30T05:22:19.698Z,95797.56
2022-08-30T05:25:06.749Z,95802.84
2022-08-30T05:27:53.496Z,95808.69
2022-08-30T05:30:39.443Z,95806.63
2022-08-30T05:33:25.735Z,95812.06
2022-08-30T05:46:43.119Z,95804.91
2022-08-30T05:49:29.117Z,95819.28
2022-08-30T05:52:18.135Z,95808.59
2022-08-30T05:55:05.794Z,95812.47
2022-08-30T05:57:51.627Z,95809.81
2022-08-30T06:00:38.088Z,95795.41
2022-08-30T06:03:24.584Z,95810.34
2022-08-30T06:06:13.004Z,95794.88
2022-08-30T06:08:58.891Z,95805.13
2022-08-30T06:11:45.492Z,95814.38
2022-08-30T06:14:31.629Z,95814.72
2022-08-30T06:17:17.581Z,95811.03
2022-08-30T06:20:04.047Z,95804.38
2022-08-30T06:22:50.068Z,95800.09
2022-08-30T06:25:41.224Z,95812.91
2022-08-30T06:28:28.217Z,95805.91
2022-08-30T06:31:16.618Z,95813.91
2022-08-30T06:34:02.690Z,95797.56
2022-08-30T06:36:49.007Z,95796.38
2022-08-30T06:39:36.411Z,95804.19
2022-08-30T06:42:22.643Z,95796.81
2022-08-30T06:45:10.763Z,95787.06
2022-08-30T06:50:54.844Z,95810.66
2022-08-30T06:53:41.216Z,95798.50
2022-08-30T06:56:27.734Z,95801.72
2022-08-30T08:07:42.046Z,95796.91
2022-08-30T08:10:29.710Z,95784.84
2022-08-30T08:13:16.095Z,95780.97
2022-08-30T08:16:03.629Z,95782.06
2022-08-30T08:18:49.925Z,95772.88
2022-08-30T08:21:37.188Z,95780.72
2022-08-30T08:24:23.960Z,95786.38
2022-08-30T08:27:10.103Z,95789.19
2022-08-30T08:29:55.956Z,95781.09
2022-08-30T08:32:41.854Z,95785.97
2022-08-30T08:35:27.990Z,95780.03
2022-08-30T08:38:14.141Z,95758.47
2022-08-30T08:41:29.723Z,95790.59
2022-08-30T08:44:37.658Z,95788.19
2022-08-30T08:47:37.983Z,95791.50
2022-08-30T08:50:24.222Z,95787.97
2022-08-30T08:53:46.193Z,95794.13
2022-08-30T08:56:33.122Z,95780.28
2022-08-30T08:59:19.278Z,95784.75
2022-08-30T09:02:28.632Z,95790.84
2022-08-30T09:05:19.676Z,95790.94
2022-08-30T09:08:10.119Z,95798.41
2022-08-30T11:25:09.809Z,95680.91
2022-08-30T11:27:57.086Z,95673.81
2022-08-30T11:30:42.802Z,95658.78
2022-08-30T11:33:42.106Z,95669.09
2022-08-30T11:36:43.734Z,95668.72
2022-08-30T11:39:56.507Z,95657.41
2022-08-30T11:42:45.851Z,95650.66
2022-08-30T11:45:36.243Z,95655.84
2022-08-30T11:49:10.065Z,95651.34
2022-08-30T11:52:28.832Z,95650.56
2022-08-30T11:55:41.398Z,95645.19
2022-08-30T11:58:49.092Z,95642.81
2022-08-30T12:01:51.210Z,95626.28
2022-08-30T20:04:26.877Z,95721.91
2022-08-30T20:07:13.780Z,95720.63
2022-08-30T20:10:03.088Z,95728.22
2022-08-30T20:12:50.284Z,95721.81
2022-08-30T20:15:37.989Z,95742.31
2022-08-30T20:18:27.548Z,95739.13
2022-08-30T20:21:14.627Z,95724.94
2022-08-30T20:24:01.267Z,95745.59
2022-08-30T20:26:47.505Z,95745.06
2022-08-30T20:29:34.707Z,95748.41
2022-08-30T20:32:20.554Z,95750.38
2022-08-30T20:35:08.175Z,95746.88
2022-08-30T20:37:54.617Z,95752.94
2022-08-30T20:40:41.565Z,95751.59
2022-08-30T20:43:29.523Z,95762.06
2022-08-30T20:46:17.988Z,95741.47
2022-08-30T20:49:04.267Z,95755.75
2022-08-30T20:51:54.345Z,95756.88
2022-08-30T20:54:41.340Z,95744.84
2022-08-30T20:57:27.295Z,95742.19
2022-08-30T21:00:13.861Z,95735.34
2022-08-30T21:02:59.931Z,95734.84
2022-08-30T21:05:48.743Z,95736.41
2022-08-30T21:08:35.008Z,95742.38
2022-08-30T21:11:21.150Z,95735.84
2022-08-30T21:14:07.665Z,95713.63
2022-08-30T21:16:54.424Z,95725.97
2022-08-30T21:19:43.999Z,95733.88
2022-08-30T21:22:30.303Z,95737.09
2022-08-30T21:25:16.579Z,95745.06
2022-08-30T21:28:02.913Z,95733.78
2022-08-30T21:30:49.174Z,95744.78
2022-08-30T21:33:35.959Z,95746.09
2022-08-30T21:36:41.910Z,95752.94
2022-08-30T21:39:29.646Z,95742.28
2022-08-30T21:42:15.522Z,95743.09
2022-08-30T21:45:01.505Z,95739.19
2022-08-30T21:47:47.561Z,95732.16
2022-08-30T21:50:33.781Z,95730.25
2022-08-30T21:53:20.001Z,95736.28
2022-08-30T21:56:21.421Z,95698.44
2022-08-30T21:59:08.682Z,95725.88
2022-08-30T22:01:54.897Z,95699.63
2022-08-30T22:04:41.472Z,95702.34
2022-08-30T22:07:27.727Z,95719.28
2022-08-30T22:10:14.124Z,95706.75
2022-08-30T22:13:00.837Z,95681.50
2022-08-30T22:15:46.625Z,95709.72
2022-08-30T22:18:33.285Z,95716.56
2022-08-30T22:21:22.824Z,95715.06
2022-08-30T22:24:09.663Z,95705.06
2022-08-30T22:26:55.643Z,95697.28
2022-08-30T22:29:41.845Z,95695.16
2022-08-30T22:32:27.789Z,95691.56
2022-08-30T22:35:14.001Z,95682.03
2022-08-30T22:38:00.534Z,95698.13
2022-08-30T22:40:48.264Z,95705.22
2022-08-30T22:43:34.510Z,95694.53
2022-08-30T22:46:23.236Z,95686.03
2022-08-30T22:49:20.508Z,95698.88
2022-08-30T22:52:06.753Z,95690.66
2022-08-30T22:54:52.825Z,95694.75
2022-08-30T22:57:39.623Z,95675.84
2022-08-30T23:00:25.532Z,95678.00
2022-08-30T23:03:11.520Z,95689.53
2022-08-30T23:05:57.750Z,95669.81
2022-08-30T23:08:43.948Z,95688.88
2022-08-30T23:11:30.626Z,95670.09
2022-08-30T23:14:19.512Z,95673.13
2022-08-30T23:17:05.467Z,95667.63
2022-08-30T23:19:51.490Z,95666.22
2022-08-30T23:22:37.781Z,95618.81
2022-08-30T23:25:47.212Z,95662.28
2022-08-30T23:28:56.088Z,95646.16
2022-08-30T23:32:00.580Z,95648.00
2022-08-30T23:35:05.762Z,95662.97
2022-08-30T23:38:10.336Z,95662.81
2022-08-30T23:41:15.144Z,95651.81
2022-08-30T23:44:19.642Z,95670.66
2022-08-30T23:47:24.230Z,95669.56
2022-08-30T23:50:28.705Z,95663.81
2022-08-30T23:53:34.017Z,95664.00
2022-08-30T23:56:38.618Z,95664.84
2022-08-30T23:59:43.531Z,95656.75
